Time,TemperatureF,DewpointF,PressureIn,WindDirection,WindDirectionDegrees,WindSpeedMPH,WindSpeedGustMPH,Humidity,HourlyPrecipIn,Conditions,Clouds,dailyrainin,SolarRadiationWatts/m^2,SoftwareType,DateUTC
2013-02-13 00:00:00,33.6,25.5,29.95,WSW,257,0.0,0.0,72,0.00,,,0.00,0,Wunderground v.1.15,2013-02-13 05:00:00,
2013-02-13 00:01:00,33.5,25.4,29.95,WSW,257,0.0,0.0,72,0.00,,,0.00,0,Wunderground v.1.15,2013-02-13 05:01:00,
2013-02-13 00:02:00,33.5,25.4,29.95,WSW,257,0.0,0.0,72,0.00,,,0.00,0,Wunderground v.1.15,2013-02-13 05:02:00,
2013-02-13 00:03:00,33.5,25.4,29.95,WSW,257,0.0,0.0,72,0.00,,,0.00,0,Wunderground v.1.15,2013-02-13 05:03:00,
2013-02-13 00:09:00,33.4,25.3,29.94,WSW,257,0.0,0.0,72,0.00,,,0.00,0,Wunderground v.1.15,2013-02-13 05:09:00,
2013-02-13 00:15:00,33.4,25.7,29.94,WSW,257,0.0,0.0,73,0.00,,,0.00,0,Wunderground v.1.15,2013-02-13 05:15:00,
2013-02-13 00:21:00,33.3,25.6,29.94,WSW,257,1.0,1.0,73,0.00,,,0.00,0,Wunderground v.1.15,2013-02-13 05:21:00,
2013-02-13 00:27:00,33.2,25.5,29.94,WNW,282,0.0,2.0,73,0.00,,,0.00,0,Wunderground v.1.15,2013-02-13 05:27:00,
2013-02-13 00:32:00,33.2,25.5,29.94,WNW,282,0.0,0.0,73,0.00,,,0.00,0,Wunderground v.1.15,2013-02-13 05:32:00,
2013-02-13 00:38:00,33.1,25.4,29.94,WNW,282,0.0,0.0,73,0.00,,,0.00,0,Wunderground v.1.15,2013-02-13 05:38:00,
2013-02-13 00:44:00,33.0,25.3,29.94,WNW,282,0.0,1.0,73,0.00,,,0.00,0,Wunderground v.1.15,2013-02-13 05:44:00,
2013-02-13 00:50:00,33.0,25.3,29.93,WNW,282,0.0,0.0,73,0.00,,,0.00,0,Wunderground v.1.15,2013-02-13 05:50:00,
2013-02-13 00:56:00,32.9,25.5,29.93,WNW,282,0.0,0.0,74,0.00,,,0.00,0,Wunderground v.1.15,2013-02-13 05:56:00,
2013-02-13 01:01:00,32.9,25.5,29.93,WNW,282,0.0,0.0,74,0.00,,,0.00,0,Wunderground v.1.15,2013-02-13 06:01:00,
2013-02-13 01:07:00,32.8,25.4,29.94,WNW,282,0.0,0.0,74,0.00,,,0.00,0,Wunderground v.1.15,2013-02-13 06:07:00,
2013-02-13 01:13:00,32.6,25.2,29.94,WNW,282,0.0,0.0,74,0.00,,,0.00,0,Wunderground v.1.15,2013-02-13 06:13:00,
2013-02-13 01:18:00,32.5,25.1,29.95,WNW,282,0.0,0.0,74,0.00,,,0.00,0,Wunderground v.1.15,2013-02-13 06:18:00,
2013-02-13 01:23:00,32.4,24.7,29.95,WNW,282,0.0,0.0,73,0.00,,,0.00,0,Wunderground v.1.15,2013-02-13 06:23:00,
2013-02-13 01:28:00,32.3,24.9,29.95,WNW,282,0.0,0.0,74,0.00,,,0.00,0,Wunderground v.1.15,2013-02-13 06:28:00,
2013-02-13 01:33:00,32.2,24.8,29.95,WNW,282,0.0,0.0,74,0.00,,,0.00,0,Wunderground v.1.15,2013-02-13 06:33:00,
2013-02-13 01:39:00,32.1,24.7,29.95,WNW,282,0.0,0.0,74,0.00,,,0.00,0,Wunderground v.1.15,2013-02-13 06:39:00,
2013-02-13 01:45:00,31.9,24.6,29.95,WNW,282,0.0,0.0,74,0.00,,,0.00,0,Wunderground v.1.15,2013-02-13 06:45:00,
2013-02-13 01:51:00,31.8,24.5,29.95,WNW,282,0.0,0.0,74,0.00,,,0.00,0,Wunderground v.1.15,2013-02-13 06:51:00,
2013-02-13 01:56:00,31.7,24.4,29.95,WNW,282,0.0,0.0,74,0.00,,,0.00,0,Wunderground v.1.15,2013-02-13 06:56:00,
2013-02-13 02:01:00,31.6,24.3,29.95,WNW,282,0.0,0.0,74,0.00,,,0.00,0,Wunderground v.1.15,2013-02-13 07:01:00,
2013-02-13 02:06:00,31.5,24.2,29.95,WNW,282,0.0,0.0,74,0.00,,,0.00,0,Wunderground v.1.15,2013-02-13 07:06:00,
2013-02-13 02:11:00,31.4,24.1,29.94,WNW,282,0.0,1.0,74,0.00,,,0.00,0,Wunderground v.1.15,2013-02-13 07:11:00,
2013-02-13 02:16:00,31.4,24.4,29.94,WNW,282,0.0,3.0,75,0.00,,,0.00,0,Wunderground v.1.15,2013-02-13 07:16:00,
2013-02-13 02:21:00,31.3,24.3,29.94,WNW,282,0.0,0.0,75,0.00,,,0.00,0,Wunderground v.1.15,2013-02-13 07:21:00,
2013-02-13 02:26:00,31.2,24.2,29.94,WNW,282,0.0,1.0,75,0.00,,,0.00,0,Wunderground v.1.15,2013-02-13 07:26:00,
2013-02-13 02:31:00,31.2,24.2,29.93,WNW,282,0.0,0.0,75,0.00,,,0.00,0,Wunderground v.1.15,2013-02-13 07:31:00,
2013-02-13 02:37:00,31.2,24.2,29.92,NW,320,0.0,4.0,75,0.00,,,0.00,0,Wunderground v.1.15,2013-02-13 07:37:00,
2013-02-13 02:42:00,31.1,24.4,29.93,NNW,333,0.0,0.0,76,0.00,,,0.00,0,Wunderground v.1.15,2013-02-13 07:42:00,
2013-02-13 02:47:00,31.1,24.4,29.93,NNW,333,0.0,0.0,76,0.00,,,0.00,0,Wunderground v.1.15,2013-02-13 07:47:00,
2013-02-13 02:52:00,31.1,24.4,29.92,NNW,331,0.0,1.0,76,0.00,,,0.00,0,Wunderground v.1.15,2013-02-13 07:52:00,
2013-02-13 02:57:00,31.1,24.4,29.92,NNW,331,0.0,1.0,76,0.00,,,0.00,0,Wunderground v.1.15,2013-02-13 07:57:00,
2013-02-13 03:02:00,31.0,24.6,29.92,NNW,331,0.0,0.0,77,0.00,,,0.00,0,Wunderground v.1.15,2013-02-13 08:02:00,
2013-02-13 03:07:00,31.0,24.6,29.92,NNW,331,0.0,0.0,77,0.00,,,0.00,0,Wunderground v.1.15,2013-02-13 08:07:00,
2013-02-13 03:12:00,31.0,24.6,29.92,NNW,331,0.0,0.0,77,0.00,,,0.00,0,Wunderground v.1.15,2013-02-13 08:12:00,
2013-02-13 03:17:00,30.9,24.5,29.91,NNW,331,0.0,0.0,77,0.00,,,0.00,0,Wunderground v.1.15,2013-02-13 08:17:00,
2013-02-13 03:22:00,30.9,24.5,29.91,NNW,331,0.0,0.0,77,0.00,,,0.00,0,Wunderground v.1.15,2013-02-13 08:22:00,
2013-02-13 03:27:00,30.8,24.4,29.90,NNW,331,0.0,1.0,77,0.00,,,0.00,0,Wunderground v.1.15,2013-02-13 08:27:00,
2013-02-13 03:32:00,30.7,24.3,29.90,NNW,331,0.0,1.0,77,0.00,,,0.00,0,Wunderground v.1.15,2013-02-13 08:32:00,
2013-02-13 03:38:00,30.6,24.6,29.90,NNE,14,2.0,4.0,78,0.00,,,0.00,0,Wunderground v.1.15,2013-02-13 08:38:00,
2013-02-13 03:42:00,30.9,24.8,29.90,North,9,2.0,3.0,78,0.00,,,0.00,0,Wunderground v.1.15,2013-02-13 08:42:00,
2013-02-13 03:47:00,31.1,25.0,29.89,North,9,5.0,5.0,78,0.00,,,0.00,0,Wunderground v.1.15,2013-02-13 08:47:00,
2013-02-13 03:53:00,31.2,25.1,29.89,North,350,2.0,6.0,78,0.00,,,0.00,0,Wunderground v.1.15,2013-02-13 08:53:00,
2013-02-13 03:58:00,31.3,25.2,29.89,NNW,346,0.0,6.0,78,0.00,,,0.00,0,Wunderground v.1.15,2013-02-13 08:58:00,
2013-02-13 04:03:00,31.4,25.3,29.90,NNW,346,0.0,1.0,78,0.00,,,0.00,0,Wunderground v.1.15,2013-02-13 09:03:00,
2013-02-13 04:08:00,31.4,25.3,29.90,NNW,346,0.0,1.0,78,0.00,,,0.00,0,Wunderground v.1.15,2013-02-13 09:08:00,
2013-02-13 04:13:00,31.4,25.3,29.90,NNW,346,0.0,0.0,78,0.00,,,0.00,0,Wunderground v.1.15,2013-02-13 09:13:00,
2013-02-13 04:18:00,31.4,25.3,29.90,NNW,346,0.0,0.0,78,0.00,,,0.00,0,Wunderground v.1.15,2013-02-13 09:18:00,
2013-02-13 04:23:00,31.4,25.3,29.90,NNW,346,0.0,0.0,78,0.00,,,0.00,0,Wunderground v.1.15,2013-02-13 09:23:00,
2013-02-13 04:28:00,31.3,25.2,29.90,NNW,346,0.0,0.0,78,0.00,,,0.00,0,Wunderground v.1.15,2013-02-13 09:28:00,
2013-02-13 04:33:00,31.2,25.1,29.90,NNW,346,0.0,0.0,78,0.00,,,0.00,0,Wunderground v.1.15,2013-02-13 09:33:00,
2013-02-13 04:38:00,31.1,24.7,29.90,NNW,346,0.0,0.0,77,0.00,,,0.00,0,Wunderground v.1.15,2013-02-13 09:38:00,
2013-02-13 04:43:00,30.9,24.5,29.91,NNW,346,0.0,0.0,77,0.00,,,0.00,0,Wunderground v.1.15,2013-02-13 09:43:00,
2013-02-13 04:48:00,30.8,24.4,29.92,NNW,346,0.0,0.0,77,0.00,,,0.00,0,Wunderground v.1.15,2013-02-13 09:48:00,
2013-02-13 04:53:00,30.7,24.7,29.92,NNW,346,0.0,1.0,78,0.00,,,0.00,0,Wunderground v.1.15,2013-02-13 09:53:00,
2013-02-13 04:58:00,30.6,24.6,29.92,NNW,346,0.0,1.0,78,0.00,,,0.00,0,Wunderground v.1.15,2013-02-13 09:58:00,
2013-02-13 05:03:00,30.5,24.1,29.91,NNW,346,0.0,0.0,77,0.00,,,0.00,0,Wunderground v.1.15,2013-02-13 10:03:00,
2013-02-13 05:08:00,30.3,24.3,29.91,NNW,346,0.0,0.0,78,0.00,,,0.00,0,Wunderground v.1.15,2013-02-13 10:08:00,
2013-02-13 05:13:00,30.2,24.2,29.91,NNW,346,0.0,0.0,78,0.00,,,0.00,0,Wunderground v.1.15,2013-02-13 10:13:00,
2013-02-13 05:18:00,30.1,24.1,29.91,NNW,346,0.0,0.0,78,0.00,,,0.00,0,Wunderground v.1.15,2013-02-13 10:18:00,
2013-02-13 05:23:00,29.9,23.9,29.90,NNW,346,0.0,0.0,78,0.00,,,0.00,0,Wunderground v.1.15,2013-02-13 10:23:00,
2013-02-13 05:28:00,29.8,23.8,29.90,NNW,346,0.0,0.0,78,0.00,,,0.00,0,Wunderground v.1.15,2013-02-13 10:28:00,
2013-02-13 05:33:00,29.7,23.7,29.90,NNW,346,0.0,0.0,78,0.00,,,0.00,0,Wunderground v.1.15,2013-02-13 10:33:00,
2013-02-13 05:38:00,29.6,23.9,29.90,NNW,346,0.0,0.0,79,0.00,,,0.00,0,Wunderground v.1.15,2013-02-13 10:38:00,
2013-02-13 05:43:00,29.5,23.8,29.90,NNW,346,0.0,0.0,79,0.00,,,0.00,0,Wunderground v.1.15,2013-02-13 10:43:00,
2013-02-13 05:48:00,29.5,23.8,29.90,NNW,346,0.0,0.0,79,0.00,,,0.00,0,Wunderground v.1.15,2013-02-13 10:48:00,
2013-02-13 05:53:00,29.4,23.7,29.90,NNW,346,0.0,0.0,79,0.00,,,0.00,0,Wunderground v.1.15,2013-02-13 10:53:00,
2013-02-13 05:58:00,29.4,23.7,29.90,NNW,346,0.0,0.0,79,0.00,,,0.00,0,Wunderground v.1.15,2013-02-13 10:58:00,
2013-02-13 06:03:00,29.3,23.9,29.90,NNW,346,0.0,1.0,80,0.00,,,0.00,0,Wunderground v.1.15,2013-02-13 11:03:00,
2013-02-13 06:08:00,29.3,23.9,29.90,NNW,346,0.0,1.0,80,0.00,,,0.00,0,Wunderground v.1.15,2013-02-13 11:08:00,
2013-02-13 06:13:00,29.3,23.9,29.89,NNW,346,0.0,0.0,80,0.00,,,0.00,0,Wunderground v.1.15,2013-02-13 11:13:00,
2013-02-13 06:18:00,29.2,23.8,29.89,NNW,346,0.0,0.0,80,0.00,,,0.00,0,Wunderground v.1.15,2013-02-13 11:18:00,
2013-02-13 06:23:00,29.2,24.1,29.89,NNW,346,0.0,0.0,81,0.00,,,0.00,0,Wunderground v.1.15,2013-02-13 11:23:00,
2013-02-13 06:28:00,29.2,24.1,29.89,NNW,346,0.0,1.0,81,0.00,,,0.00,0,Wunderground v.1.15,2013-02-13 11:28:00,
2013-02-13 06:33:00,29.1,24.0,29.90,NNW,346,0.0,0.0,81,0.00,,,0.00,0,Wunderground v.1.15,2013-02-13 11:33:00,
2013-02-13 06:38:00,29.1,24.0,29.90,NNW,346,0.0,0.0,81,0.00,,,0.00,0,Wunderground v.1.15,2013-02-13 11:38:00,
2013-02-13 06:44:00,29.0,23.9,29.90,NNW,346,0.0,0.0,81,0.00,,,0.00,0,Wunderground v.1.15,2013-02-13 11:44:00,
2013-02-13 06:49:00,29.0,23.9,29.90,NNW,346,0.0,0.0,81,0.00,,,0.00,0,Wunderground v.1.15,2013-02-13 11:49:00,
2013-02-13 06:54:00,28.9,23.8,29.90,NNW,346,0.0,0.0,81,0.00,,,0.00,0,Wunderground v.1.15,2013-02-13 11:54:00,
2013-02-13 06:59:00,28.8,23.7,29.90,NNW,346,0.0,0.0,81,0.00,,,0.00,5,Wunderground v.1.15,2013-02-13 11:59:00,
2013-02-13 07:04:00,28.8,23.7,29.90,NNW,346,0.0,0.0,81,0.00,,,0.00,7,Wunderground v.1.15,2013-02-13 12:04:00,
2013-02-13 07:09:00,28.7,23.6,29.90,NNW,346,0.0,0.0,81,0.00,,,0.00,9,Wunderground v.1.15,2013-02-13 12:09:00,
2013-02-13 07:14:00,28.7,23.9,29.90,NNW,346,0.0,0.0,82,0.00,,,0.00,12,Wunderground v.1.15,2013-02-13 12:14:00,
2013-02-13 07:19:00,28.6,23.8,29.90,NNW,346,0.0,0.0,82,0.00,,,0.00,16,Wunderground v.1.15,2013-02-13 12:19:00,
2013-02-13 07:24:00,28.6,23.8,29.90,NNW,346,0.0,1.0,82,0.00,,,0.00,19,Wunderground v.1.15,2013-02-13 12:24:00,
2013-02-13 07:29:00,28.6,23.8,29.90,NNW,346,0.0,1.0,82,0.00,,,0.00,23,Wunderground v.1.15,2013-02-13 12:29:00,
2013-02-13 07:34:00,28.5,23.7,29.90,NNW,346,0.0,0.0,82,0.00,,,0.00,23,Wunderground v.1.15,2013-02-13 12:34:00,
2013-02-13 07:39:00,28.5,24.0,29.90,NNW,346,0.0,0.0,83,0.00,,,0.00,26,Wunderground v.1.15,2013-02-13 12:39:00,
2013-02-13 07:44:00,28.6,24.1,29.90,NNW,346,0.0,0.0,83,0.00,,,0.00,30,Wunderground v.1.15,2013-02-13 12:44:00,
2013-02-13 07:49:00,28.7,24.2,29.90,NNW,346,0.0,0.0,83,0.00,,,0.00,44,Wunderground v.1.15,2013-02-13 12:49:00,
2013-02-13 07:54:00,28.7,24.5,29.90,NNW,346,0.0,0.0,84,0.00,,,0.00,30,Wunderground v.1.15,2013-02-13 12:54:00,
2013-02-13 07:59:00,29.0,24.8,29.90,NNW,346,0.0,0.0,84,0.00,,,0.00,40,Wunderground v.1.15,2013-02-13 12:59:00,
2013-02-13 08:04:00,29.3,25.1,29.89,NNW,346,0.0,0.0,84,0.00,,,0.00,83,Wunderground v.1.15,2013-02-13 13:04:00,
2013-02-13 08:09:00,29.4,25.4,29.89,NNW,346,0.0,0.0,85,0.00,,,0.00,58,Wunderground v.1.15,2013-02-13 13:09:00,
2013-02-13 08:14:00,29.8,25.8,29.89,NNW,346,0.0,0.0,85,0.00,,,0.00,42,Wunderground v.1.15,2013-02-13 13:14:00,
2013-02-13 08:20:00,30.2,26.5,29.89,NNW,346,0.0,0.0,86,0.00,,,0.00,40,Wunderground v.1.15,2013-02-13 13:20:00,
2013-02-13 08:25:00,30.7,27.0,29.89,NNW,346,0.0,1.0,86,0.00,,,0.00,49,Wunderground v.1.15,2013-02-13 13:25:00,
2013-02-13 08:30:00,31.3,27.9,29.88,NNW,346,0.0,0.0,87,0.00,,,0.00,47,Wunderground v.1.15,2013-02-13 13:30:00,
2013-02-13 08:35:00,31.9,28.2,29.88,NNW,346,1.0,1.0,86,0.00,,,0.00,46,Wunderground v.1.15,2013-02-13 13:35:00,
2013-02-13 08:40:00,32.2,28.2,29.88,North,360,0.0,2.0,85,0.00,,,0.00,44,Wunderground v.1.15,2013-02-13 13:40:00,
2013-02-13 08:45:00,32.6,28.6,29.88,North,360,2.0,3.0,85,0.00,,,0.00,54,Wunderground v.1.15,2013-02-13 13:45:00,
2013-02-13 08:50:00,33.1,28.8,29.88,North,5,4.0,4.0,84,0.00,,,0.00,49,Wunderground v.1.15,2013-02-13 13:50:00,
2013-02-13 08:55:00,33.6,28.7,29.88,North,5,0.0,4.0,82,0.00,,,0.00,49,Wunderground v.1.15,2013-02-13 13:55:00,
2013-02-13 09:00:00,34.1,28.9,29.88,NNE,24,0.0,0.0,81,0.00,,,0.00,127,Wunderground v.1.15,2013-02-13 14:00:00,
2013-02-13 09:05:00,34.8,29.3,29.87,NE,48,1.0,3.0,80,0.00,,,0.00,113,Wunderground v.1.15,2013-02-13 14:05:00,
2013-02-13 09:10:00,35.7,28.9,29.87,ENE,60,0.0,3.0,76,0.00,,,0.00,125,Wunderground v.1.15,2013-02-13 14:10:00,
2013-02-13 09:16:00,36.4,28.6,29.88,ENE,60,0.0,3.0,73,0.00,,,0.00,199,Wunderground v.1.15,2013-02-13 14:16:00,
2013-02-13 09:21:00,37.1,28.6,29.87,ENE,60,2.0,2.0,71,0.00,,,0.00,227,Wunderground v.1.15,2013-02-13 14:21:00,
2013-02-13 09:26:00,37.6,28.0,29.88,ENE,60,0.0,2.0,68,0.00,,,0.00,239,Wunderground v.1.15,2013-02-13 14:26:00,
2013-02-13 09:31:00,38.0,28.0,29.88,ENE,61,1.0,1.0,67,0.00,,,0.00,237,Wunderground v.1.15,2013-02-13 14:31:00,
2013-02-13 09:36:00,38.3,27.9,29.88,ENE,66,1.0,2.0,66,0.00,,,0.00,223,Wunderground v.1.15,2013-02-13 14:36:00,
2013-02-13 09:41:00,38.4,27.7,29.87,ENE,66,0.0,1.0,65,0.00,,,0.00,237,Wunderground v.1.15,2013-02-13 14:41:00,
2013-02-13 09:46:00,38.6,27.8,29.87,ENE,67,3.0,4.0,65,0.00,,,0.00,338,Wunderground v.1.15,2013-02-13 14:46:00,
2013-02-13 09:51:00,38.7,27.9,29.87,ENE,67,3.0,3.0,65,0.00,,,0.00,401,Wunderground v.1.15,2013-02-13 14:51:00,
2013-02-13 09:56:00,39.0,28.2,29.87,ENE,67,0.0,3.0,65,0.00,,,0.00,380,Wunderground v.1.15,2013-02-13 14:56:00,
2013-02-13 10:01:00,39.5,28.3,29.88,ENE,67,0.0,2.0,64,0.00,,,0.00,272,Wunderground v.1.15,2013-02-13 15:01:00,
2013-02-13 10:07:00,39.7,28.5,29.88,ENE,67,0.0,3.0,64,0.00,,,0.00,283,Wunderground v.1.15,2013-02-13 15:07:00,
2013-02-13 10:12:00,40.0,28.8,29.88,ENE,67,0.0,0.0,64,0.00,,,0.00,359,Wunderground v.1.15,2013-02-13 15:12:00,
2013-02-13 10:17:00,40.1,28.9,29.88,ESE,116,3.0,5.0,64,0.00,,,0.00,206,Wunderground v.1.15,2013-02-13 15:17:00,
2013-02-13 10:22:00,39.9,28.7,29.88,ESE,118,0.0,1.0,64,0.00,,,0.00,232,Wunderground v.1.15,2013-02-13 15:22:00,
2013-02-13 10:27:00,39.9,29.5,29.88,ESE,118,0.0,1.0,66,0.00,,,0.00,227,Wunderground v.1.15,2013-02-13 15:27:00,
2013-02-13 10:32:00,39.9,29.5,29.88,ESE,118,0.0,4.0,66,0.00,,,0.00,257,Wunderground v.1.15,2013-02-13 15:32:00,
2013-02-13 10:37:00,39.9,29.8,29.88,ESE,118,0.0,4.0,67,0.00,,,0.00,265,Wunderground v.1.15,2013-02-13 15:37:00,
2013-02-13 10:42:00,40.0,30.3,29.88,ESE,121,2.0,3.0,68,0.00,,,0.00,306,Wunderground v.1.15,2013-02-13 15:42:00,
2013-02-13 10:47:00,40.0,30.3,29.88,SSE,148,0.0,4.0,68,0.00,,,0.00,279,Wunderground v.1.15,2013-02-13 15:47:00,
2013-02-13 10:52:00,40.0,30.6,29.88,SSE,163,0.0,4.0,69,0.00,,,0.00,237,Wunderground v.1.15,2013-02-13 15:52:00,
2013-02-13 10:57:00,39.9,30.5,29.88,SSE,161,0.0,4.0,69,0.00,,,0.00,251,Wunderground v.1.15,2013-02-13 15:57:00,
2013-02-13 11:02:00,39.9,30.5,29.88,SSE,161,0.0,1.0,69,0.00,,,0.00,278,Wunderground v.1.15,2013-02-13 16:02:00,
2013-02-13 11:07:00,40.0,30.6,29.86,SSE,161,0.0,3.0,69,0.00,,,0.00,299,Wunderground v.1.15,2013-02-13 16:07:00,
2013-02-13 11:12:00,40.1,30.7,29.86,ENE,68,4.0,5.0,69,0.00,,,0.00,313,Wunderground v.1.15,2013-02-13 16:12:00,
2013-02-13 11:17:00,40.2,30.8,29.85,ENE,65,4.0,5.0,69,0.00,,,0.00,413,Wunderground v.1.15,2013-02-13 16:17:00,
2013-02-13 11:22:00,40.4,31.0,29.85,ENE,63,2.0,4.0,69,0.00,,,0.00,311,Wunderground v.1.15,2013-02-13 16:22:00,
2013-02-13 11:27:00,40.6,31.2,29.85,ENE,59,3.0,4.0,69,0.00,,,0.00,279,Wunderground v.1.15,2013-02-13 16:27:00,
2013-02-13 11:32:00,40.7,31.3,29.85,ENE,58,0.0,5.0,69,0.00,,,0.00,248,Wunderground v.1.15,2013-02-13 16:32:00,
2013-02-13 11:37:00,40.7,31.3,29.85,ENE,58,1.0,5.0,69,0.00,,,0.00,209,Wunderground v.1.15,2013-02-13 16:37:00,
2013-02-13 11:42:00,40.7,31.3,29.85,ENE,65,4.0,4.0,69,0.00,,,0.00,223,Wunderground v.1.15,2013-02-13 16:42:00,
2013-02-13 11:47:00,40.5,31.1,29.84,ENE,67,1.0,4.0,69,0.00,,,0.00,257,Wunderground v.1.15,2013-02-13 16:47:00,
2013-02-13 11:52:00,40.4,31.0,29.84,ENE,69,3.0,4.0,69,0.00,,,0.00,200,Wunderground v.1.15,2013-02-13 16:52:00,
2013-02-13 11:57:00,40.4,31.4,29.84,ENE,69,1.0,4.0,70,0.00,,,0.00,181,Wunderground v.1.15,2013-02-13 16:57:00,
2013-02-13 12:02:00,40.4,31.4,29.83,ENE,69,0.0,1.0,70,0.00,,,0.00,206,Wunderground v.1.15,2013-02-13 17:02:00,
2013-02-13 12:08:00,40.4,31.4,29.83,ENE,69,1.0,1.0,70,0.00,,,0.00,213,Wunderground v.1.15,2013-02-13 17:08:00,
2013-02-13 12:13:00,40.4,31.4,29.83,ENE,69,4.0,4.0,70,0.00,,,0.00,246,Wunderground v.1.15,2013-02-13 17:13:00,
2013-02-13 12:18:00,40.4,31.4,29.83,ENE,67,4.0,4.0,70,0.00,,,0.00,246,Wunderground v.1.15,2013-02-13 17:18:00,
2013-02-13 12:23:00,40.4,31.4,29.82,ENE,63,0.0,5.0,70,0.00,,,0.00,229,Wunderground v.1.15,2013-02-13 17:23:00,
2013-02-13 12:28:00,40.3,31.3,29.82,ENE,64,1.0,5.0,70,0.00,,,0.00,244,Wunderground v.1.15,2013-02-13 17:28:00,
2013-02-13 12:33:00,40.4,31.4,29.81,ENE,65,1.0,4.0,70,0.00,,,0.00,232,Wunderground v.1.15,2013-02-13 17:33:00,
2013-02-13 12:38:00,40.4,31.4,29.81,ENE,65,0.0,4.0,70,0.00,,,0.00,244,Wunderground v.1.15,2013-02-13 17:38:00,
2013-02-13 12:43:00,40.5,31.1,29.80,ENE,65,0.0,4.0,69,0.00,,,0.00,343,Wunderground v.1.15,2013-02-13 17:43:00,
2013-02-13 12:48:00,40.6,31.2,29.80,ENE,66,1.0,5.0,69,0.00,,,0.00,345,Wunderground v.1.15,2013-02-13 17:48:00,
2013-02-13 12:53:00,40.9,31.9,29.80,ENE,77,0.0,5.0,70,0.00,,,0.00,355,Wunderground v.1.15,2013-02-13 17:53:00,
2013-02-13 12:58:00,41.2,32.2,29.80,East,82,2.0,5.0,70,0.00,,,0.00,322,Wunderground v.1.15,2013-02-13 17:58:00,
2013-02-13 13:03:00,41.1,31.7,29.79,ENE,69,2.0,4.0,69,0.00,,,0.00,290,Wunderground v.1.15,2013-02-13 18:03:00,
2013-02-13 13:08:00,41.0,31.6,29.79,ENE,69,5.0,7.0,69,0.00,,,0.00,178,Wunderground v.1.15,2013-02-13 18:08:00,
2013-02-13 13:13:00,40.9,31.9,29.79,ENE,67,3.0,4.0,70,0.00,,,0.00,462,Wunderground v.1.15,2013-02-13 18:13:00,
2013-02-13 13:18:00,41.2,32.5,29.79,ENE,69,0.0,5.0,71,0.00,,,0.00,297,Wunderground v.1.15,2013-02-13 18:18:00,
2013-02-13 13:23:00,41.3,32.2,29.78,ENE,74,0.0,4.0,70,0.00,,,0.00,304,Wunderground v.1.15,2013-02-13 18:23:00,
2013-02-13 13:28:00,41.2,32.2,29.78,ENE,72,2.0,8.0,70,0.00,,,0.00,364,Wunderground v.1.15,2013-02-13 18:28:00,
2013-02-13 13:33:00,41.2,32.2,29.77,ENE,74,2.0,5.0,70,0.00,,,0.00,227,Wunderground v.1.15,2013-02-13 18:33:00,
2013-02-13 13:38:00,41.0,32.3,29.77,East,82,0.0,5.0,71,0.00,,,0.00,287,Wunderground v.1.15,2013-02-13 18:38:00,
2013-02-13 13:43:00,41.1,32.8,29.75,East,80,2.0,5.0,72,0.00,,,0.00,279,Wunderground v.1.15,2013-02-13 18:43:00,
2013-02-13 13:48:00,41.1,32.8,29.75,ENE,78,0.0,5.0,72,0.00,,,0.00,327,Wunderground v.1.15,2013-02-13 18:48:00,
2013-02-13 13:53:00,41.2,32.5,29.75,ESE,110,5.0,8.0,71,0.00,,,0.00,336,Wunderground v.1.15,2013-02-13 18:53:00,
2013-02-13 13:58:00,41.5,33.1,29.76,ENE,72,4.0,8.0,72,0.00,,,0.00,309,Wunderground v.1.15,2013-02-13 18:58:00,
2013-02-13 14:03:00,41.6,32.9,29.77,ENE,75,2.0,4.0,71,0.00,,,0.00,244,Wunderground v.1.15,2013-02-13 19:03:00,
2013-02-13 14:08:00,41.7,33.0,29.76,East,86,0.0,5.0,71,0.00,,,0.00,269,Wunderground v.1.15,2013-02-13 19:08:00,
2013-02-13 14:13:00,41.8,33.4,29.76,ESE,105,3.0,3.0,72,0.00,,,0.00,279,Wunderground v.1.15,2013-02-13 19:13:00,
2013-02-13 14:18:00,42.0,33.3,29.76,East,94,0.0,5.0,71,0.00,,,0.00,487,Wunderground v.1.15,2013-02-13 19:18:00,
2013-02-13 14:23:00,42.4,33.3,29.76,East,92,1.0,3.0,70,0.00,,,0.00,441,Wunderground v.1.15,2013-02-13 19:23:00,
2013-02-13 14:28:00,42.9,33.8,29.75,ESE,121,3.0,7.0,70,0.00,,,0.00,577,Wunderground v.1.15,2013-02-13 19:28:00,
2013-02-13 14:34:00,43.1,33.6,29.76,SE,142,2.0,7.0,69,0.00,,,0.00,557,Wunderground v.1.15,2013-02-13 19:34:00,
2013-02-13 14:39:00,43.3,33.4,29.75,ESE,122,5.0,7.0,68,0.00,,,0.00,417,Wunderground v.1.15,2013-02-13 19:39:00,
2013-02-13 14:44:00,43.3,32.7,29.75,ENE,76,3.0,5.0,66,0.00,,,0.00,383,Wunderground v.1.15,2013-02-13 19:44:00,
2013-02-13 14:49:00,43.3,32.7,29.75,East,98,2.0,8.0,66,0.00,,,0.00,267,Wunderground v.1.15,2013-02-13 19:49:00,
2013-02-13 14:54:00,43.0,32.4,29.75,SE,140,1.0,5.0,66,0.00,,,0.00,269,Wunderground v.1.15,2013-02-13 19:54:00,
2013-02-13 14:59:00,42.8,32.2,29.75,SE,126,0.0,5.0,66,0.00,,,0.00,165,Wunderground v.1.15,2013-02-13 19:59:00,
2013-02-13 15:04:00,42.5,31.9,29.75,ENE,70,0.0,5.0,66,0.00,,,0.00,141,Wunderground v.1.15,2013-02-13 20:04:00,
2013-02-13 15:10:00,42.3,32.1,29.74,ENE,70,0.0,2.0,67,0.00,,,0.00,149,Wunderground v.1.15,2013-02-13 20:10:00,
2013-02-13 15:15:00,42.1,31.9,29.74,ENE,76,0.0,2.0,67,0.00,,,0.00,137,Wunderground v.1.15,2013-02-13 20:15:00,
2013-02-13 15:20:00,41.9,31.7,29.74,ENE,78,0.0,1.0,67,0.00,,,0.00,105,Wunderground v.1.15,2013-02-13 20:20:00,
2013-02-13 15:25:00,41.8,32.4,29.74,ENE,78,2.0,3.0,69,0.00,,,0.00,88,Wunderground v.1.15,2013-02-13 20:25:00,
2013-02-13 15:30:00,41.7,31.9,29.74,ENE,69,3.0,3.0,68,0.00,,,0.00,76,Wunderground v.1.15,2013-02-13 20:30:00,
2013-02-13 15:35:00,41.6,31.8,29.74,ENE,72,0.0,5.0,68,0.00,,,0.00,65,Wunderground v.1.15,2013-02-13 20:35:00,
2013-02-13 15:40:00,41.4,32.0,29.73,ENE,65,0.0,5.0,69,0.00,,,0.00,77,Wunderground v.1.15,2013-02-13 20:40:00,
2013-02-13 15:45:00,41.2,31.8,29.72,ENE,76,5.0,5.0,69,0.00,,,0.00,88,Wunderground v.1.15,2013-02-13 20:45:00,
2013-02-13 15:50:00,41.0,32.0,29.72,ENE,74,4.0,4.0,70,0.00,,,0.00,72,Wunderground v.1.15,2013-02-13 20:50:00,
2013-02-13 15:55:00,40.9,32.2,29.72,ENE,72,2.0,8.0,71,0.00,,,0.00,69,Wunderground v.1.15,2013-02-13 20:55:00,
2013-02-13 16:01:00,40.9,32.2,29.72,ENE,71,4.0,4.0,71,0.00,,,0.00,67,Wunderground v.1.15,2013-02-13 21:01:00,
2013-02-13 16:06:00,40.8,32.5,29.71,ENE,78,1.0,5.0,72,0.00,,,0.00,72,Wunderground v.1.15,2013-02-13 21:06:00,
2013-02-13 16:11:00,40.7,32.4,29.71,ENE,77,1.0,3.0,72,0.00,,,0.00,54,Wunderground v.1.15,2013-02-13 21:11:00,
2013-02-13 16:16:00,40.5,32.2,29.70,ENE,76,2.0,8.0,72,0.00,,,0.00,62,Wunderground v.1.15,2013-02-13 21:16:00,
2013-02-13 16:21:00,40.4,32.1,29.71,East,95,0.0,5.0,72,0.00,,,0.00,62,Wunderground v.1.15,2013-02-13 21:21:00,
2013-02-13 16:26:00,40.3,32.0,29.70,East,80,5.0,8.0,72,0.00,,,0.00,42,Wunderground v.1.15,2013-02-13 21:26:00,
2013-02-13 16:31:00,40.2,31.9,29.70,ENE,77,0.0,2.0,72,0.00,,,0.00,26,Wunderground v.1.15,2013-02-13 21:31:00,
2013-02-13 16:36:00,40.1,31.8,29.70,ENE,69,0.0,7.0,72,0.00,,,0.00,14,Wunderground v.1.15,2013-02-13 21:36:00,
2013-02-13 16:41:00,40.0,31.7,29.70,ENE,72,0.0,2.0,72,0.00,,,0.00,18,Wunderground v.1.15,2013-02-13 21:41:00,
2013-02-13 16:46:00,39.8,31.5,29.70,ENE,67,3.0,8.0,72,0.00,,,0.00,11,Wunderground v.1.15,2013-02-13 21:46:00,
2013-02-13 16:51:00,39.8,31.8,29.69,ENE,67,1.0,4.0,73,0.00,,,0.00,11,Wunderground v.1.15,2013-02-13 21:51:00,
2013-02-13 16:56:00,39.7,31.8,29.68,East,88,6.0,10.0,73,0.00,,,0.00,14,Wunderground v.1.15,2013-02-13 21:56:00,
2013-02-13 17:01:00,39.7,31.8,29.68,East,81,0.0,3.0,73,0.00,,,0.00,12,Wunderground v.1.15,2013-02-13 22:01:00,
2013-02-13 17:06:00,39.6,31.7,29.68,East,86,0.0,6.0,73,0.00,,,0.00,11,Wunderground v.1.15,2013-02-13 22:06:00,
2013-02-13 17:11:00,39.6,32.0,29.68,East,100,0.0,1.0,74,0.00,,,0.00,5,Wunderground v.1.15,2013-02-13 22:11:00,
2013-02-13 17:16:00,39.6,32.0,29.69,ENE,78,3.0,9.0,74,0.00,,,0.00,0,Wunderground v.1.15,2013-02-13 22:16:00,
2013-02-13 17:21:00,39.5,31.9,29.68,ENE,78,0.0,3.0,74,0.00,,,0.00,0,Wunderground v.1.15,2013-02-13 22:21:00,
2013-02-13 17:26:00,39.4,31.8,29.69,ESE,105,0.0,5.0,74,0.00,,,0.00,0,Wunderground v.1.15,2013-02-13 22:26:00,
2013-02-13 17:31:00,39.4,31.8,29.69,ESE,102,0.0,0.0,74,0.00,,,0.00,0,Wunderground v.1.15,2013-02-13 22:31:00,
2013-02-13 17:36:00,39.4,31.8,29.69,SE,125,0.0,2.0,74,0.00,,,0.00,0,Wunderground v.1.15,2013-02-13 22:36:00,
2013-02-13 17:41:00,39.3,31.7,29.69,ESE,117,0.0,2.0,74,0.00,,,0.00,0,Wunderground v.1.15,2013-02-13 22:41:00,
2013-02-13 17:46:00,39.3,31.7,29.68,ESE,119,0.0,2.0,74,0.00,,,0.00,0,Wunderground v.1.15,2013-02-13 22:46:00,
2013-02-13 17:51:00,39.3,31.7,29.68,ESE,117,0.0,2.0,74,0.00,,,0.00,0,Wunderground v.1.15,2013-02-13 22:51:00,
2013-02-13 17:56:00,39.3,31.7,29.67,East,92,0.0,5.0,74,0.00,,,0.00,0,Wunderground v.1.15,2013-02-13 22:56:00,
2013-02-13 18:01:00,39.3,31.7,29.68,East,98,1.0,2.0,74,0.00,,,0.00,0,Wunderground v.1.15,2013-02-13 23:01:00,
2013-02-13 18:06:00,39.2,31.6,29.68,ENE,73,0.0,5.0,74,0.00,,,0.00,0,Wunderground v.1.15,2013-02-13 23:06:00,
2013-02-13 18:11:00,39.3,31.7,29.68,East,85,0.0,0.0,74,0.00,,,0.00,0,Wunderground v.1.15,2013-02-13 23:11:00,
2013-02-13 18:16:00,39.3,32.0,29.68,East,99,3.0,3.0,75,0.00,,,0.00,0,Wunderground v.1.15,2013-02-13 23:16:00,
2013-02-13 18:21:00,39.2,31.9,29.68,SE,134,0.0,2.0,75,0.00,,,0.00,0,Wunderground v.1.15,2013-02-13 23:21:00,
2013-02-13 18:26:00,39.1,31.8,29.67,ESE,108,2.0,7.0,75,0.00,,,0.00,0,Wunderground v.1.15,2013-02-13 23:26:00,
2013-02-13 18:31:00,39.0,31.7,29.67,ENE,75,2.0,4.0,75,0.00,,,0.00,0,Wunderground v.1.15,2013-02-13 23:31:00,
2013-02-13 18:37:00,38.9,32.0,29.67,ENE,71,0.0,6.0,76,0.00,,,0.00,0,Wunderground v.1.15,2013-02-13 23:37:00,
2013-02-13 18:42:00,38.8,31.9,29.66,ENE,64,3.0,5.0,76,0.00,,,0.00,0,Wunderground v.1.15,2013-02-13 23:42:00,
2013-02-13 18:47:00,38.7,31.8,29.67,East,83,3.0,7.0,76,0.00,,,0.00,0,Wunderground v.1.15,2013-02-13 23:47:00,
2013-02-13 18:52:00,38.6,32.0,29.67,ENE,77,3.0,7.0,77,0.00,,,0.00,0,Wunderground v.1.15,2013-02-13 23:52:00,
2013-02-13 18:57:00,38.5,31.9,29.67,ENE,74,0.0,7.0,77,0.00,,,0.00,0,Wunderground v.1.15,2013-02-13 23:57:00,
2013-02-13 19:02:00,38.4,32.1,29.67,ENE,70,0.0,4.0,78,0.00,,,0.00,0,Wunderground v.1.15,2013-02-14 00:02:00,
2013-02-13 19:07:00,38.2,31.9,29.66,ENE,70,0.0,7.0,78,0.00,,,0.01,0,Wunderground v.1.15,2013-02-14 00:07:00,
2013-02-13 19:12:00,38.0,32.1,29.66,ENE,64,0.0,8.0,79,0.00,,,0.01,0,Wunderground v.1.15,2013-02-14 00:12:00,
2013-02-13 19:17:00,37.8,32.2,29.66,ENE,67,0.0,8.0,80,0.00,,,0.01,0,Wunderground v.1.15,2013-02-14 00:17:00,
2013-02-13 19:22:00,37.6,32.0,29.67,ENE,70,5.0,7.0,80,0.00,,,0.01,0,Wunderground v.1.15,2013-02-14 00:22:00,
2013-02-13 19:27:00,37.4,32.1,29.68,East,82,5.0,7.0,81,0.00,,,0.02,0,Wunderground v.1.15,2013-02-14 00:27:00,
2013-02-13 19:32:00,37.3,32.0,29.68,ENE,68,0.0,4.0,81,0.00,,,0.02,0,Wunderground v.1.15,2013-02-14 00:32:00,
2013-02-13 19:37:00,37.3,32.3,29.68,ENE,75,0.0,4.0,82,0.00,,,0.02,0,Wunderground v.1.15,2013-02-14 00:37:00,
2013-02-13 19:42:00,37.2,32.2,29.68,ENE,74,3.0,7.0,82,0.00,,,0.02,0,Wunderground v.1.15,2013-02-14 00:42:00,
2013-02-13 19:47:00,37.0,32.0,29.68,SE,128,0.0,8.0,82,0.00,,,0.03,0,Wunderground v.1.15,2013-02-14 00:47:00,
2013-02-13 19:52:00,36.8,32.1,29.68,ENE,78,4.0,5.0,83,0.00,,,0.03,0,Wunderground v.1.15,2013-02-14 00:52:00,
2013-02-13 19:57:00,36.6,31.9,29.68,ENE,63,0.0,8.0,83,0.00,,,0.03,0,Wunderground v.1.15,2013-02-14 00:57:00,
2013-02-13 20:02:00,36.5,32.1,29.68,NE,49,5.0,7.0,84,0.05,,,0.04,0,Wunderground v.1.15,2013-02-14 01:02:00,
2013-02-13 20:07:00,36.3,32.2,29.67,NE,49,3.0,7.0,85,0.05,,,0.04,0,Wunderground v.1.15,2013-02-14 01:07:00,
2013-02-13 20:12:00,36.2,32.1,29.67,ENE,65,0.0,5.0,85,0.04,,,0.04,0,Wunderground v.1.15,2013-02-14 01:12:00,
2013-02-13 20:17:00,36.1,32.3,29.67,ENE,69,4.0,6.0,86,0.00,,,0.04,0,Wunderground v.1.15,2013-02-14 01:17:00,
2013-02-13 20:22:00,36.0,32.2,29.67,ENE,57,1.0,3.0,86,0.00,,,0.05,0,Wunderground v.1.15,2013-02-14 01:22:00,
2013-02-13 20:27:00,36.0,32.2,29.68,NE,49,4.0,5.0,86,0.00,,,0.05,0,Wunderground v.1.15,2013-02-14 01:27:00,
2013-02-13 20:32:00,35.9,32.1,29.68,ENE,59,2.0,7.0,86,0.00,,,0.05,0,Wunderground v.1.15,2013-02-14 01:32:00,
2013-02-13 20:37:00,35.8,32.3,29.68,NNE,30,5.0,8.0,87,0.00,,,0.05,0,Wunderground v.1.15,2013-02-14 01:37:00,
2013-02-13 20:42:00,35.7,32.2,29.67,ENE,74,0.0,7.0,87,0.00,,,0.05,0,Wunderground v.1.15,2013-02-14 01:42:00,
2013-02-13 20:47:00,35.7,32.2,29.67,NE,53,4.0,8.0,87,0.00,,,0.05,0,Wunderground v.1.15,2013-02-14 01:47:00,
2013-02-13 20:52:00,35.7,32.5,29.67,ENE,69,3.0,5.0,88,0.00,,,0.05,0,Wunderground v.1.15,2013-02-14 01:52:00,
2013-02-13 20:57:00,35.6,32.4,29.67,ENE,64,4.0,8.0,88,0.00,,,0.06,0,Wunderground v.1.15,2013-02-14 01:57:00,
2013-02-13 21:02:00,35.5,32.3,29.67,ENE,67,3.0,7.0,88,0.00,,,0.06,0,Wunderground v.1.15,2013-02-14 02:02:00,
2013-02-13 21:08:00,35.4,32.2,29.66,ENE,62,3.0,8.0,88,0.00,,,0.06,0,Wunderground v.1.15,2013-02-14 02:08:00,
2013-02-13 21:13:00,35.3,32.4,29.66,ENE,64,2.0,6.0,89,0.00,,,0.06,0,Wunderground v.1.15,2013-02-14 02:13:00,
2013-02-13 21:18:00,35.2,32.3,29.67,NNE,29,3.0,10.0,89,0.00,,,0.07,0,Wunderground v.1.15,2013-02-14 02:18:00,
2013-02-13 21:23:00,35.1,32.2,29.67,NNE,29,5.0,6.0,89,0.00,,,0.07,0,Wunderground v.1.15,2013-02-14 02:23:00,
2013-02-13 21:28:00,35.0,32.1,29.67,North,5,3.0,7.0,89,0.00,,,0.07,0,Wunderground v.1.15,2013-02-14 02:28:00,
2013-02-13 21:33:00,35.0,32.1,29.67,NNE,19,5.0,6.0,89,0.00,,,0.07,0,Wunderground v.1.15,2013-02-14 02:33:00,
2013-02-13 21:38:00,34.9,32.0,29.67,NNE,30,0.0,8.0,89,0.00,,,0.07,0,Wunderground v.1.15,2013-02-14 02:38:00,
2013-02-13 21:43:00,34.8,31.9,29.67,NNE,23,3.0,6.0,89,0.00,,,0.08,0,Wunderground v.1.15,2013-02-14 02:43:00,
2013-02-13 21:48:00,34.7,31.8,29.67,North,9,0.0,6.0,89,0.00,,,0.08,0,Wunderground v.1.15,2013-02-14 02:48:00,
2013-02-13 21:53:00,34.5,31.6,29.66,NE,34,0.0,4.0,89,0.00,,,0.08,0,Wunderground v.1.15,2013-02-14 02:53:00,
2013-02-13 21:58:00,34.3,31.7,29.66,NNE,29,0.0,5.0,90,0.06,,,0.09,0,Wunderground v.1.15,2013-02-14 02:58:00,
2013-02-13 22:03:00,34.2,31.6,29.66,NNE,30,1.0,4.0,90,0.07,,,0.10,0,Wunderground v.1.15,2013-02-14 03:03:00,
2013-02-13 22:08:00,34.0,31.4,29.66,NNE,30,0.0,7.0,90,0.07,,,0.10,0,Wunderground v.1.15,2013-02-14 03:08:00,
2013-02-13 22:13:00,33.9,31.3,29.66,NNE,32,0.0,6.0,90,0.07,,,0.11,0,Wunderground v.1.15,2013-02-14 03:13:00,
2013-02-13 22:18:00,33.8,31.2,29.65,North,9,1.0,8.0,90,0.10,,,0.12,0,Wunderground v.1.15,2013-02-14 03:18:00,
2013-02-13 22:23:00,33.7,31.1,29.65,NNE,15,7.0,9.0,90,0.08,,,0.12,0,Wunderground v.1.15,2013-02-14 03:23:00,
2013-02-13 22:28:00,33.7,31.1,29.65,NNE,12,3.0,9.0,90,0.05,,,0.12,0,Wunderground v.1.15,2013-02-14 03:28:00,
2013-02-13 22:34:00,33.7,31.1,29.65,NNE,12,4.0,7.0,90,0.04,,,0.13,0,Wunderground v.1.15,2013-02-14 03:34:00,
2013-02-13 22:39:00,33.6,31.0,29.65,North,355,3.0,8.0,90,0.04,,,0.13,0,Wunderground v.1.15,2013-02-14 03:39:00,
2013-02-13 22:44:00,33.6,31.3,29.65,NE,48,5.0,8.0,91,0.04,,,0.13,0,Wunderground v.1.15,2013-02-14 03:44:00,
2013-02-13 22:49:00,33.6,31.3,29.66,NE,55,2.0,8.0,91,0.04,,,0.14,0,Wunderground v.1.15,2013-02-14 03:49:00,
2013-02-13 22:54:00,33.6,31.3,29.66,ENE,57,2.0,7.0,91,0.04,,,0.14,0,Wunderground v.1.15,2013-02-14 03:54:00,
2013-02-13 22:59:00,33.6,31.3,29.65,NNE,29,6.0,7.0,91,0.05,,,0.15,0,Wunderground v.1.15,2013-02-14 03:59:00,
2013-02-13 23:04:00,33.5,31.2,29.66,NNE,20,5.0,7.0,91,0.05,,,0.15,0,Wunderground v.1.15,2013-02-14 04:04:00,
2013-02-13 23:09:00,33.5,31.2,29.66,NNE,23,0.0,7.0,91,0.09,,,0.16,0,Wunderground v.1.15,2013-02-14 04:09:00,
2013-02-13 23:14:00,33.5,31.2,29.66,NE,36,1.0,5.0,91,0.08,,,0.17,0,Wunderground v.1.15,2013-02-14 04:14:00,
2013-02-13 23:19:00,33.5,31.2,29.66,ENE,57,3.0,7.0,91,0.08,,,0.17,0,Wunderground v.1.15,2013-02-14 04:19:00,
2013-02-13 23:24:00,33.4,31.1,29.66,NNE,19,5.0,6.0,91,0.05,,,0.17,0,Wunderground v.1.15,2013-02-14 04:24:00,
2013-02-13 23:29:00,33.4,31.1,29.66,NNE,22,4.0,9.0,91,0.00,,,0.17,0,Wunderground v.1.15,2013-02-14 04:29:00,
2013-02-13 23:34:00,33.4,31.1,29.66,NNE,23,2.0,7.0,91,0.00,,,0.18,0,Wunderground v.1.15,2013-02-14 04:34:00,
2013-02-13 23:40:00,33.4,31.3,29.67,North,11,0.0,3.0,92,0.00,,,0.18,0,Wunderground v.1.15,2013-02-14 04:40:00,
2013-02-13 23:45:00,33.5,31.4,29.67,NNE,13,5.0,5.0,92,0.00,,,0.18,0,Wunderground v.1.15,2013-02-14 04:45:00,
2013-02-13 23:50:00,33.5,31.4,29.67,NNE,19,3.0,6.0,92,0.00,,,0.18,0,Wunderground v.1.15,2013-02-14 04:50:00,
2013-02-13 23:55:00,33.5,31.4,29.67,North,360,3.0,7.0,92,0.00,,,0.19,0,Wunderground v.1.15,2013-02-14 04:55:00,